createdAt,value
2019-01-27T00:02:10.864Z,89.30
2019-01-27T00:04:37.817Z,89.40
2019-01-27T00:07:04.777Z,89.40
2019-01-27T00:09:31.723Z,89.40
2019-01-27T00:11:58.668Z,87.90
2019-01-27T00:14:25.637Z,88.90
2019-01-27T00:16:52.649Z,88.80
2019-01-27T00:19:19.585Z,88.80
2019-01-27T00:21:46.566Z,88.50
2019-01-27T00:24:13.506Z,88.40
2019-01-27T00:26:40.438Z,88.30
2019-01-27T00:29:07.391Z,88.40
2019-01-27T00:31:34.327Z,88.50
2019-01-27T00:34:01.286Z,88.90
2019-01-27T00:36:28.256Z,88.90
2019-01-27T00:38:55.196Z,88.20
2019-01-27T00:41:22.124Z,88.40
2019-01-27T00:43:49.591Z,88.30
2019-01-27T00:46:16.520Z,88.20
2019-01-27T00:48:43.488Z,87.30
2019-01-27T00:51:10.440Z,88.10
2019-01-27T00:53:37.383Z,88.20
2019-01-27T00:56:04.648Z,88.50
2019-01-27T00:58:31.589Z,88.30
2019-01-27T01:00:58.516Z,88.10
2019-01-27T01:03:25.548Z,87.90
2019-01-27T01:05:52.497Z,88.30
2019-01-27T01:08:19.426Z,88.60
2019-01-27T01:10:46.372Z,88.20
2019-01-27T01:13:13.332Z,87.90
2019-01-27T01:15:40.267Z,87.50
2019-01-27T01:18:07.208Z,87.40
2019-01-27T01:20:34.176Z,87.50
2019-01-27T01:23:01.131Z,87.60
2019-01-27T01:25:28.062Z,87.30
2019-01-27T01:27:55.041Z,87.50
2019-01-27T01:30:25.175Z,87.10
2019-01-27T01:32:52.095Z,86.90
2019-01-27T01:35:19.064Z,87.00
2019-01-27T01:37:45.998Z,86.80
2019-01-27T01:40:15.223Z,86.80
2019-01-27T01:42:42.160Z,87.00
2019-01-27T01:45:13.932Z,87.30
2019-01-27T01:47:40.862Z,87.00
2019-01-27T01:50:07.871Z,88.20
2019-01-27T01:52:34.808Z,87.10
2019-01-27T01:55:01.749Z,86.90
2019-01-27T01:57:28.710Z,87.10
2019-01-27T01:59:55.660Z,87.30
2019-01-27T02:02:22.609Z,87.20
2019-01-27T02:04:49.557Z,87.10
2019-01-27T02:07:16.488Z,87.10
2019-01-27T02:09:43.449Z,86.80
2019-01-27T02:12:10.377Z,86.80
2019-01-27T02:14:37.317Z,87.10
2019-01-27T02:17:04.264Z,86.70
2019-01-27T02:19:31.214Z,87.00
2019-01-27T02:21:58.153Z,87.30
2019-01-27T02:24:25.085Z,87.40
2019-01-27T02:26:52.035Z,86.90
2019-01-27T02:29:18.968Z,86.70
2019-01-27T02:31:45.903Z,87.00
2019-01-27T02:34:12.880Z,86.60
2019-01-27T02:36:39.804Z,86.80
2019-01-27T02:39:08.004Z,86.90
2019-01-27T02:41:34.983Z,86.60
2019-01-27T02:44:01.925Z,86.40
2019-01-27T02:46:29.301Z,86.80
2019-01-27T02:48:56.251Z,87.10
2019-01-27T02:51:23.186Z,87.30
2019-01-27T02:53:50.129Z,87.30
2019-01-27T02:56:17.058Z,87.30
2019-01-27T02:58:43.987Z,87.50
2019-01-27T03:01:10.926Z,87.50
2019-01-27T03:03:37.878Z,87.80
2019-01-27T03:06:10.078Z,87.50
2019-01-27T03:08:41.232Z,87.60
2019-01-27T03:11:08.157Z,87.90
2019-01-27T03:13:35.113Z,87.90
2019-01-27T03:16:02.072Z,87.80
2019-01-27T03:18:29.003Z,87.60
2019-01-27T03:20:55.945Z,87.70
2019-01-27T03:23:22.909Z,87.30
2019-01-27T03:25:49.846Z,87.30
2019-01-27T03:28:16.775Z,87.10
2019-01-27T03:30:43.722Z,86.40
2019-01-27T03:33:10.644Z,87.20
2019-01-27T03:35:37.594Z,87.10
2019-01-27T03:38:04.555Z,87.30
2019-01-27T03:40:31.485Z,87.30
2019-01-27T03:42:58.415Z,87.70
2019-01-27T03:45:25.364Z,88.00
2019-01-27T03:47:52.555Z,87.90
2019-01-27T03:50:19.493Z,87.30
2019-01-27T03:52:46.461Z,87.60
2019-01-27T03:55:15.158Z,87.40
2019-01-27T03:57:42.081Z,88.30
2019-01-27T04:00:13.257Z,87.60
2019-01-27T04:02:40.180Z,87.40
2019-01-27T04:05:07.133Z,87.50
2019-01-27T04:07:34.084Z,87.50
2019-01-27T04:10:01.007Z,87.50
2019-01-27T04:12:27.948Z,87.50
2019-01-27T04:14:54.905Z,87.80
2019-01-27T04:17:21.846Z,88.10
2019-01-27T04:19:48.775Z,88.40
2019-01-27T04:22:15.736Z,88.60
2019-01-27T04:24:42.663Z,88.70
2019-01-27T04:27:09.597Z,88.40
2019-01-27T04:29:36.550Z,88.30
2019-01-27T04:32:03.475Z,88.40
2019-01-27T04:34:30.400Z,88.80
2019-01-27T04:36:57.343Z,89.10
2019-01-27T04:39:24.271Z,89.10
2019-01-27T04:41:51.197Z,88.90
2019-01-27T04:44:18.138Z,89.00
2019-01-27T04:46:45.058Z,89.30
2019-01-27T04:49:12.276Z,89.00
2019-01-27T04:51:39.232Z,89.00
2019-01-27T04:54:06.169Z,89.40
2019-01-27T04:56:33.100Z,89.20
2019-01-27T04:59:00.053Z,88.70
2019-01-27T05:01:26.980Z,88.70
2019-01-27T05:04:13.540Z,88.20
2019-01-27T05:06:40.465Z,88.20
2019-01-27T05:09:08.571Z,88.00
2019-01-27T05:11:35.536Z,88.40
2019-01-27T05:14:02.464Z,87.80
2019-01-27T05:16:29.396Z,87.70
2019-01-27T05:18:56.338Z,87.40
2019-01-27T05:21:23.269Z,87.60
2019-01-27T05:23:50.206Z,87.50
2019-01-27T05:26:17.140Z,88.30
2019-01-27T05:28:44.073Z,89.20
2019-01-27T05:31:10.991Z,89.20
2019-01-27T05:33:37.978Z,90.30
2019-01-27T05:36:04.913Z,90.50
2019-01-27T05:38:31.868Z,90.70
2019-01-27T05:40:58.824Z,90.80
2019-01-27T05:43:25.748Z,90.70
2019-01-27T05:45:52.699Z,90.80
2019-01-27T05:48:19.640Z,91.00
2019-01-27T05:50:46.947Z,90.70
2019-01-27T05:53:13.875Z,91.10
2019-01-27T05:55:40.854Z,91.10
2019-01-27T05:58:07.787Z,90.60
2019-01-27T06:00:38.968Z,90.60
2019-01-27T06:03:05.924Z,90.80
2019-01-27T06:05:32.877Z,90.60
2019-01-27T06:07:59.795Z,90.50
2019-01-27T06:10:26.743Z,90.60
2019-01-27T06:12:53.685Z,90.50
2019-01-27T06:15:20.632Z,90.50
2019-01-27T06:17:47.595Z,90.50
2019-01-27T06:20:14.549Z,90.40
2019-01-27T06:22:41.484Z,90.40
2019-01-27T06:25:10.614Z,90.50
2019-01-27T06:27:37.542Z,90.50
2019-01-27T06:30:07.143Z,90.60
2019-01-27T06:32:45.493Z,90.30
2019-01-27T06:35:12.420Z,90.40
2019-01-27T06:37:39.358Z,90.40
2019-01-27T06:40:06.388Z,90.20
2019-01-27T06:42:33.358Z,90.20
2019-01-27T06:45:00.280Z,90.10
2019-01-27T06:47:27.226Z,90.20
2019-01-27T06:49:54.169Z,90.30
2019-01-27T06:52:21.636Z,90.30
2019-01-27T06:54:49.004Z,90.10
2019-01-27T06:57:15.991Z,90.00
2019-01-27T06:59:52.464Z,90.10
2019-01-27T07:02:30.701Z,89.90
2019-01-27T07:05:10.424Z,89.90
2019-01-27T07:08:02.845Z,89.80
2019-01-27T07:10:35.631Z,89.70
2019-01-27T07:13:09.435Z,90.00
2019-01-27T07:15:47.871Z,90.10
2019-01-27T07:18:26.380Z,90.10
2019-01-27T07:21:03.469Z,90.00
2019-01-27T07:23:38.188Z,90.10
2019-01-27T07:26:25.675Z,90.00
2019-01-27T07:29:01.501Z,90.10
2019-01-27T07:31:48.833Z,89.90
2019-01-27T07:34:26.287Z,90.00
2019-01-27T07:37:09.289Z,89.60
2019-01-27T07:39:53.869Z,90.40
2019-01-27T07:42:43.120Z,90.00
2019-01-27T07:45:20.340Z,89.60
2019-01-27T07:48:08.937Z,89.40
2019-01-27T07:51:01.486Z,89.70
2019-01-27T07:53:50.575Z,89.20
2019-01-27T07:56:33.364Z,88.80
2019-01-27T07:59:06.749Z,89.00
2019-01-27T08:01:49.523Z,89.10
2019-01-27T08:04:23.640Z,88.90
2019-01-27T08:07:01.055Z,89.10
2019-01-27T08:09:35.710Z,88.80
2019-01-27T08:12:14.073Z,88.90
2019-01-27T08:14:46.891Z,88.80
2019-01-27T08:17:36.224Z,88.60
2019-01-27T08:20:17.150Z,88.00
2019-01-27T08:22:52.067Z,88.10
2019-01-27T08:25:42.696Z,87.80
2019-01-27T08:28:21.700Z,88.00
2019-01-27T08:30:54.444Z,87.00
2019-01-27T08:33:27.319Z,87.20
2019-01-27T08:35:59.364Z,86.90
2019-01-27T08:38:49.988Z,86.70
2019-01-27T08:41:28.078Z,86.10
2019-01-27T08:44:10.056Z,84.90
2019-01-27T08:46:42.427Z,84.00
2019-01-27T08:49:09.350Z,83.50
2019-01-27T08:51:36.280Z,81.30
2019-01-27T08:54:04.252Z,80.00
2019-01-27T08:56:31.209Z,77.90
2019-01-27T08:58:58.127Z,76.20
2019-01-27T09:01:37.388Z,76.00
2019-01-27T09:04:10.830Z,77.50
2019-01-27T09:07:00.453Z,78.20
2019-01-27T09:09:45.925Z,77.70
2019-01-27T09:12:29.336Z,74.40
2019-01-27T09:15:06.296Z,71.50
2019-01-27T09:17:56.838Z,67.80
2019-01-27T09:20:33.276Z,64.90
2019-01-27T09:23:14.900Z,61.80
2019-01-27T09:25:47.568Z,61.50
2019-01-27T09:28:19.938Z,64.00
2019-01-27T09:30:58.499Z,66.70
2019-01-27T09:33:35.493Z,70.10
2019-01-27T09:36:08.288Z,69.00
2019-01-27T09:38:44.210Z,67.40
2019-01-27T09:41:30.751Z,63.80
2019-01-27T09:44:17.325Z,63.30
2019-01-27T09:46:49.952Z,60.80
2019-01-27T09:49:30.859Z,58.70
2019-01-27T09:52:04.960Z,55.90
2019-01-27T09:54:49.663Z,54.50
2019-01-27T09:57:38.064Z,52.20
2019-01-27T10:00:19.883Z,51.30
2019-01-27T10:02:58.800Z,50.50
2019-01-27T10:05:33.855Z,49.40
2019-01-27T10:08:21.295Z,49.00
2019-01-27T10:10:59.324Z,48.60
2019-01-27T10:13:36.656Z,49.20
2019-01-27T10:16:09.353Z,52.00
2019-01-27T10:18:59.707Z,54.50
2019-01-27T10:21:32.431Z,56.60
2019-01-27T10:24:08.588Z,56.00
2019-01-27T10:26:45.059Z,58.80
2019-01-27T10:29:32.580Z,59.40
2019-01-27T10:32:20.013Z,60.30
2019-01-27T10:34:59.478Z,60.50
2019-01-27T10:37:51.394Z,63.30
2019-01-27T10:40:24.608Z,63.70
2019-01-27T10:43:01.993Z,62.60
2019-01-27T10:45:41.217Z,63.20
2019-01-27T10:48:16.316Z,64.40
2019-01-27T10:50:49.111Z,67.00
2019-01-27T10:53:34.960Z,67.50
2019-01-27T10:56:10.268Z,67.60
2019-01-27T10:58:45.217Z,65.30
2019-01-27T11:01:17.984Z,64.90
2019-01-27T11:03:54.178Z,62.50
2019-01-27T11:06:40.836Z,56.00
2019-01-27T11:09:17.039Z,49.40
2019-01-27T11:11:58.612Z,45.40
2019-01-27T11:14:45.199Z,43.90
2019-01-27T11:17:25.790Z,42.50
2019-01-27T11:20:02.486Z,42.20
2019-01-27T11:22:35.132Z,43.30
2019-01-27T11:25:24.701Z,45.20
2019-01-27T11:28:04.684Z,46.70
2019-01-27T11:30:42.816Z,47.90
2019-01-27T11:33:30.171Z,47.40
2019-01-27T11:36:05.596Z,44.70
2019-01-27T11:38:38.283Z,43.00
2019-01-27T11:41:16.809Z,44.60
2019-01-27T11:43:52.721Z,46.80
2019-01-27T11:46:29.021Z,49.80
2019-01-27T11:49:01.166Z,53.30
2019-01-27T11:51:34.464Z,54.50
2019-01-27T11:54:01.392Z,57.30
2019-01-27T11:56:29.664Z,58.20
2019-01-27T11:58:56.616Z,59.30
2019-01-27T12:01:23.552Z,59.30
2019-01-27T12:03:50.502Z,59.40
2019-01-27T12:06:17.456Z,59.80
2019-01-27T12:08:44.387Z,59.40
2019-01-27T12:11:11.344Z,60.60
2019-01-27T12:13:38.295Z,61.80
2019-01-27T12:16:05.229Z,62.60
2019-01-27T12:18:32.157Z,63.80
2019-01-27T12:20:59.115Z,64.00
2019-01-27T12:23:26.049Z,62.40
2019-01-27T12:25:52.987Z,61.80
2019-01-27T12:28:19.936Z,60.40
2019-01-27T12:30:47.005Z,57.00
2019-01-27T12:33:13.948Z,55.70
2019-01-27T12:35:40.907Z,54.70
2019-01-27T12:38:07.844Z,51.20
2019-01-27T12:40:34.782Z,47.30
2019-01-27T12:43:01.744Z,46.70
2019-01-27T12:45:28.673Z,47.70
2019-01-27T12:47:55.615Z,46.80
2019-01-27T12:50:22.588Z,43.90
2019-01-27T12:52:50.175Z,42.50
2019-01-27T12:55:17.108Z,42.00
2019-01-27T12:57:44.460Z,44.90
2019-01-27T13:00:15.212Z,45.50
2019-01-27T13:02:42.170Z,50.00
2019-01-27T13:05:10.440Z,55.60
2019-01-27T13:07:36.089Z,56.20
2019-01-27T13:10:04.366Z,57.50
2019-01-27T13:12:31.310Z,58.10
2019-01-27T13:14:58.243Z,57.90
2019-01-27T13:17:25.191Z,58.70
2019-01-27T13:19:53.879Z,59.00
2019-01-27T13:22:19.064Z,58.80
2019-01-27T13:24:46.366Z,58.60
2019-01-27T13:27:13.307Z,59.10
2019-01-27T13:29:40.255Z,59.70
2019-01-27T13:32:07.192Z,60.80
2019-01-27T13:34:34.144Z,62.70
2019-01-27T13:37:01.071Z,63.30
2019-01-27T13:39:28.008Z,65.10
2019-01-27T13:41:54.966Z,65.00
2019-01-27T13:44:21.925Z,66.20
2019-01-27T13:46:48.857Z,66.80
2019-01-27T13:49:15.803Z,68.60
2019-01-27T13:51:42.725Z,66.40
2019-01-27T13:54:09.660Z,68.60
2019-01-27T13:56:36.600Z,69.10
2019-01-27T13:59:05.018Z,69.40
2019-01-27T14:01:31.961Z,69.10
2019-01-27T14:03:58.911Z,68.20
2019-01-27T14:06:25.850Z,68.70
2019-01-27T14:08:52.772Z,67.80
2019-01-27T14:11:19.719Z,68.10
2019-01-27T14:13:46.657Z,68.30
2019-01-27T14:16:13.582Z,67.80
2019-01-27T14:18:40.534Z,67.40
2019-01-27T14:21:07.448Z,66.70
2019-01-27T14:23:34.384Z,66.10
2019-01-27T14:26:01.345Z,65.00
2019-01-27T14:28:28.281Z,65.20
2019-01-27T14:30:55.204Z,64.90
2019-01-27T14:33:22.143Z,64.70
2019-01-27T14:35:49.080Z,64.60
2019-01-27T14:38:16.096Z,64.50
2019-01-27T14:40:43.052Z,65.20
2019-01-27T14:43:09.976Z,64.50
2019-01-27T14:45:36.912Z,65.60
2019-01-27T14:48:04.215Z,66.30
2019-01-27T14:50:34.716Z,67.00
2019-01-27T14:53:01.651Z,66.00
2019-01-27T14:55:28.607Z,64.70
2019-01-27T14:57:55.534Z,66.30
2019-01-27T15:00:26.600Z,66.00
2019-01-27T15:02:53.553Z,66.10
2019-01-27T15:05:20.487Z,66.30
2019-01-27T15:07:47.416Z,66.10
2019-01-27T15:10:15.820Z,65.90
2019-01-27T15:12:42.757Z,66.10
2019-01-27T15:15:12.387Z,65.30
2019-01-27T15:17:39.351Z,65.50
2019-01-27T15:20:10.401Z,65.50
2019-01-27T15:22:37.340Z,65.10
2019-01-27T15:25:04.423Z,65.30
2019-01-27T15:27:31.412Z,65.00
2019-01-27T15:29:58.343Z,65.10
2019-01-27T15:32:25.300Z,64.50
2019-01-27T15:34:52.242Z,65.00
2019-01-27T15:37:19.176Z,65.30
2019-01-27T15:39:46.133Z,65.40
2019-01-27T15:42:13.064Z,65.40
2019-01-27T15:44:40.009Z,64.80
2019-01-27T15:47:06.973Z,65.00
2019-01-27T15:49:33.900Z,64.60
2019-01-27T15:52:00.858Z,64.70
2019-01-27T15:54:27.772Z,65.00
2019-01-27T15:56:54.701Z,65.30
2019-01-27T15:59:21.624Z,65.30
2019-01-27T16:01:49.216Z,65.50
2019-01-27T16:04:16.213Z,65.20
2019-01-27T16:06:43.136Z,65.60
2019-01-27T16:09:10.106Z,65.80
2019-01-27T16:11:37.040Z,66.20
2019-01-27T16:14:04.573Z,66.70
2019-01-27T16:16:31.539Z,66.50
2019-01-27T16:18:58.952Z,66.90
2019-01-27T16:21:25.403Z,66.70
2019-01-27T16:23:55.765Z,67.10
2019-01-27T16:26:22.700Z,67.50
2019-01-27T16:28:49.630Z,68.00
2019-01-27T16:31:22.381Z,67.20
2019-01-27T16:33:53.363Z,68.80
2019-01-27T16:36:20.301Z,69.70
2019-01-27T16:38:47.266Z,70.00
2019-01-27T16:41:14.180Z,71.10
2019-01-27T16:43:41.132Z,71.40
2019-01-27T16:46:08.080Z,71.50
2019-01-27T16:48:35.008Z,72.00
2019-01-27T16:51:01.968Z,72.30
2019-01-27T16:53:28.916Z,71.20
2019-01-27T16:55:55.880Z,74.30
2019-01-27T16:58:22.792Z,73.90
2019-01-27T17:00:49.746Z,74.60
2019-01-27T17:03:18.051Z,75.60
2019-01-27T17:05:44.975Z,76.50
2019-01-27T17:08:11.928Z,75.80
2019-01-27T17:10:38.844Z,77.90
2019-01-27T17:13:05.787Z,78.70
2019-01-27T17:15:32.741Z,79.60
2019-01-27T17:17:59.664Z,79.90
2019-01-27T17:20:26.600Z,81.90
2019-01-27T17:22:53.555Z,81.10
2019-01-27T17:25:20.500Z,81.20
2019-01-27T17:27:47.415Z,81.50
2019-01-27T17:30:15.312Z,81.60
2019-01-27T17:32:42.261Z,82.20
2019-01-27T17:35:10.717Z,82.10
2019-01-27T17:37:37.668Z,82.20
2019-01-27T17:40:05.646Z,82.50
2019-01-27T17:42:32.577Z,82.50
2019-01-27T17:44:59.527Z,82.60
2019-01-27T17:47:26.451Z,82.70
2019-01-27T17:49:53.380Z,82.90
2019-01-27T17:52:20.336Z,83.00
2019-01-27T17:54:47.268Z,83.30
2019-01-27T17:57:22.892Z,83.80
2019-01-27T17:59:58.745Z,83.70
2019-01-27T18:02:32.154Z,84.10
2019-01-27T18:05:14.246Z,82.80
2019-01-27T18:07:49.303Z,84.80
2019-01-27T18:10:26.182Z,84.90
2019-01-27T18:13:00.183Z,85.30
2019-01-27T18:15:27.094Z,85.50
2019-01-27T18:17:54.030Z,85.30
2019-01-27T18:20:20.982Z,85.50
2019-01-27T18:22:48.047Z,85.80
2019-01-27T18:25:14.978Z,85.80
2019-01-27T18:27:41.937Z,86.20
2019-01-27T18:30:13.036Z,86.50
2019-01-27T18:32:39.961Z,86.60
2019-01-27T18:35:06.919Z,87.00
2019-01-27T18:37:33.831Z,86.80
2019-01-27T18:40:00.769Z,87.40
2019-01-27T18:42:27.766Z,87.60
2019-01-27T18:44:54.702Z,87.60
2019-01-27T18:47:21.628Z,87.30
2019-01-27T18:49:48.565Z,87.80
2019-01-27T18:52:15.500Z,88.00
2019-01-27T18:54:50.083Z,88.50
2019-01-27T18:57:32.933Z,89.70
2019-01-27T19:00:10.228Z,89.90
2019-01-27T19:02:44.079Z,90.10
2019-01-27T19:05:17.615Z,90.10
2019-01-27T19:07:53.544Z,89.00
2019-01-27T19:10:26.214Z,89.40
2019-01-27T19:13:18.754Z,89.70
2019-01-27T19:15:57.816Z,90.40
2019-01-27T19:18:34.180Z,90.00
2019-01-27T19:21:07.481Z,90.50
2019-01-27T19:23:55.035Z,90.70
2019-01-27T19:26:31.581Z,91.00
2019-01-27T19:29:04.203Z,91.50
2019-01-27T19:31:37.464Z,91.50
2019-01-27T19:34:11.480Z,91.60
2019-01-27T19:36:44.764Z,91.60
2019-01-27T19:39:21.635Z,91.70
2019-01-27T19:41:54.903Z,91.80
2019-01-27T19:44:28.436Z,91.60
2019-01-27T19:47:02.357Z,91.60
2019-01-27T19:49:37.482Z,91.60
2019-01-27T19:52:16.852Z,91.20
2019-01-27T19:54:49.595Z,91.60
2019-01-27T19:57:22.244Z,91.40
2019-01-27T19:59:58.143Z,91.50
2019-01-27T20:02:49.599Z,91.60
2019-01-27T20:05:24.893Z,91.40
2019-01-27T20:07:58.330Z,91.60
2019-01-27T20:10:31.175Z,92.00
2019-01-27T20:13:16.499Z,92.00
2019-01-27T20:15:53.081Z,92.10
2019-01-27T20:18:29.174Z,92.10
2019-01-27T20:21:08.133Z,92.40
2019-01-27T20:23:59.586Z,92.70
2019-01-27T20:26:32.324Z,93.10
2019-01-27T20:29:12.058Z,92.90
2019-01-27T20:31:51.324Z,92.90
2019-01-27T20:34:25.581Z,92.60
2019-01-27T20:37:12.125Z,93.00
2019-01-27T20:39:46.476Z,92.80
2019-01-27T20:42:20.907Z,92.70
2019-01-27T20:44:53.697Z,92.70
2019-01-27T20:47:34.456Z,93.10
2019-01-27T20:50:08.385Z,92.70
2019-01-27T20:52:42.171Z,92.60
2019-01-27T20:55:30.956Z,92.90
2019-01-27T20:58:09.459Z,93.10
2019-01-27T21:00:46.356Z,93.20
2019-01-27T21:03:22.595Z,93.20
2019-01-27T21:05:59.742Z,92.80
2019-01-27T21:08:33.597Z,93.10
2019-01-27T21:11:20.162Z,93.00
2019-01-27T21:13:53.087Z,92.90
2019-01-27T21:16:28.036Z,92.80
2019-01-27T21:19:01.749Z,93.10
2019-01-27T21:21:28.697Z,92.80
2019-01-27T21:23:55.612Z,92.60
2019-01-27T21:26:22.553Z,92.90
2019-01-27T21:28:49.512Z,92.60
2019-01-27T21:31:16.640Z,92.90
2019-01-27T21:33:43.668Z,93.00
2019-01-27T21:36:10.634Z,93.70
2019-01-27T21:38:37.557Z,93.60
2019-01-27T21:41:04.507Z,94.10
2019-01-27T21:43:31.469Z,94.10
2019-01-27T21:45:58.412Z,93.80
2019-01-27T21:48:25.353Z,94.00
2019-01-27T21:50:52.336Z,94.20
2019-01-27T21:53:19.306Z,94.00
2019-01-27T21:55:46.257Z,93.70
2019-01-27T21:58:13.208Z,93.70
2019-01-27T22:00:40.185Z,93.30
2019-01-27T22:03:07.121Z,93.20
2019-01-27T22:05:34.067Z,93.70
2019-01-27T22:08:02.488Z,93.10
2019-01-27T22:10:29.412Z,92.80
2019-01-27T22:12:56.363Z,92.80
2019-01-27T22:15:23.300Z,92.90
2019-01-27T22:17:50.253Z,92.50
2019-01-27T22:20:17.203Z,93.10
2019-01-27T22:22:44.144Z,93.40
2019-01-27T22:25:12.066Z,93.60
2019-01-27T22:27:39.016Z,93.60
2019-01-27T22:30:09.178Z,94.30
2019-01-27T22:32:36.112Z,94.00
2019-01-27T22:35:03.316Z,94.10
2019-01-27T22:37:30.254Z,93.90
2019-01-27T22:39:57.184Z,94.00
2019-01-27T22:42:24.141Z,94.10
2019-01-27T22:44:51.084Z,93.80
2019-01-27T22:47:18.020Z,93.60
2019-01-27T22:49:45.007Z,93.40
2019-01-27T22:52:11.920Z,93.60
2019-01-27T22:54:38.857Z,93.20
2019-01-27T22:57:06.395Z,93.10
2019-01-27T22:59:33.325Z,93.60
2019-01-27T23:02:00.252Z,93.20
2019-01-27T23:04:27.262Z,92.90
2019-01-27T23:06:54.197Z,93.00
2019-01-27T23:09:22.616Z,92.80
2019-01-27T23:11:49.660Z,92.70
2019-01-27T23:14:16.596Z,92.50
2019-01-27T23:16:43.534Z,92.60
2019-01-27T23:19:10.532Z,92.50
2019-01-27T23:21:37.459Z,92.30
2019-01-27T23:24:04.423Z,91.90
2019-01-27T23:26:31.400Z,91.90
2019-01-27T23:28:58.324Z,91.30
2019-01-27T23:31:25.247Z,91.00
2019-01-27T23:33:52.205Z,91.00
2019-01-27T23:36:19.152Z,91.00
2019-01-27T23:38:46.099Z,90.60
2019-01-27T23:41:13.059Z,90.50
2019-01-27T23:43:39.993Z,90.50
2019-01-27T23:46:06.939Z,90.80
2019-01-27T23:48:33.887Z,90.80
2019-01-27T23:51:00.832Z,91.20
2019-01-27T23:53:27.756Z,90.90
2019-01-27T23:55:54.713Z,90.70
2019-01-27T23:58:21.647Z,91.10
